createdAt,value
2018-12-19T00:00:56.780Z,16.60
2018-12-19T00:03:31.682Z,16.73
2018-12-19T00:06:04.101Z,15.30
2018-12-19T00:08:36.012Z,17.65
2018-12-19T00:11:08.126Z,15.50
2018-12-19T00:13:40.363Z,14.87
2018-12-19T00:16:12.199Z,13.50
2018-12-19T00:18:44.329Z,16.25
2018-12-19T00:21:19.110Z,14.60
2018-12-19T00:23:51.379Z,14.70
2018-12-19T00:26:23.288Z,14.30
2018-12-19T00:28:58.249Z,15.60
2018-12-19T00:31:30.557Z,13.57
2018-12-19T00:34:03.530Z,14.50
2018-12-19T00:36:35.843Z,15.65
2018-12-19T00:39:10.630Z,13.68
2018-12-19T00:41:42.906Z,14.77
2018-12-19T00:44:18.118Z,15.30
2018-12-19T00:46:50.234Z,14.80
2018-12-19T00:49:22.069Z,13.83
2018-12-19T00:51:54.264Z,15.18
2018-12-19T00:54:26.438Z,15.70
2018-12-19T00:56:59.339Z,16.62
2018-12-19T00:59:33.085Z,16.12
2018-12-19T01:02:07.898Z,17.05
2018-12-19T01:04:48.102Z,14.60
2018-12-19T01:07:17.174Z,17.05
2018-12-19T01:09:52.092Z,15.57
2018-12-19T01:12:24.085Z,14.68
2018-12-19T01:14:56.511Z,14.33
2018-12-19T01:17:29.273Z,14.50
2018-12-19T01:20:05.300Z,15.72
2018-12-19T01:22:40.335Z,14.07
2018-12-19T01:25:12.711Z,13.38
2018-12-19T01:27:44.495Z,14.47
2018-12-19T01:30:19.297Z,13.13
2018-12-19T01:32:51.591Z,13.25
2018-12-19T01:35:26.549Z,13.83
2018-12-19T01:37:59.096Z,13.72
2018-12-19T01:40:31.451Z,13.03
2018-12-19T01:43:06.425Z,13.62
2018-12-19T01:45:39.131Z,12.33
2018-12-19T01:48:11.434Z,14.05
2018-12-19T01:50:44.083Z,13.08
2018-12-19T01:53:16.283Z,14.38
2018-12-19T01:55:51.338Z,13.80
2018-12-19T01:58:26.223Z,13.88
2018-12-19T02:00:58.347Z,14.20
2018-12-19T02:03:30.186Z,12.55
2018-12-19T02:06:02.301Z,16.12
2018-12-19T02:08:34.392Z,15.13
2018-12-19T02:11:06.518Z,14.13
2018-12-19T02:13:39.995Z,13.38
2018-12-19T02:16:12.121Z,14.23
2018-12-19T02:18:44.711Z,13.70
2018-12-19T02:21:16.613Z,13.25
2018-12-19T02:23:48.513Z,13.88
2018-12-19T02:26:20.573Z,13.95
2018-12-19T02:28:52.906Z,13.15
2018-12-19T02:31:27.807Z,13.88
2018-12-19T02:44:16.273Z,15.28
2018-12-19T02:46:48.418Z,11.83
2018-12-19T02:49:20.690Z,11.33
2018-12-19T02:51:52.678Z,14.70
2018-12-19T02:54:25.107Z,14.65
2018-12-19T02:57:00.333Z,14.50
2018-12-19T02:59:35.417Z,13.55
2018-12-19T03:02:07.414Z,13.18
2018-12-19T03:04:42.385Z,10.15
2018-12-19T03:07:14.882Z,8.70
2018-12-19T03:09:46.882Z,7.17
2018-12-19T03:12:18.882Z,9.03
2018-12-19T03:14:53.999Z,6.50
2018-12-19T03:17:26.000Z,6.55
2018-12-19T03:19:58.480Z,7.92
2018-12-19T03:22:30.315Z,10.80
2018-12-19T03:25:02.540Z,10.10
2018-12-19T03:27:34.417Z,11.12
2018-12-19T03:30:09.287Z,9.93
2018-12-19T03:32:42.601Z,10.80
2018-12-19T03:35:15.466Z,10.72
2018-12-19T03:37:50.397Z,11.00
2018-12-19T03:40:25.849Z,7.83
2018-12-19T03:43:01.336Z,7.28
2018-12-19T03:45:33.723Z,8.28
2018-12-19T03:48:08.476Z,10.43
2018-12-19T03:50:40.940Z,12.00
2018-12-19T03:53:18.340Z,8.60
2018-12-19T03:55:53.497Z,7.22
2018-12-19T03:58:25.733Z,7.85
2018-12-19T04:00:58.545Z,7.63
2018-12-19T04:03:30.953Z,6.22
2018-12-19T04:09:12.592Z,6.83
2018-12-19T04:11:44.725Z,6.03
2018-12-19T04:14:16.732Z,7.58
2018-12-19T04:16:48.629Z,10.18
2018-12-19T04:19:20.529Z,11.68
2018-12-19T04:21:55.612Z,9.90
2018-12-19T04:24:28.099Z,8.03
2018-12-19T04:27:00.923Z,7.85
2018-12-19T04:29:33.825Z,8.37
2018-12-19T04:32:06.318Z,9.20
2018-12-19T04:34:39.103Z,9.40
2018-12-19T04:37:13.750Z,7.50
2018-12-19T04:39:45.970Z,7.55
2018-12-19T04:42:20.672Z,8.03
2018-12-19T04:45:03.411Z,8.78
2018-12-19T04:47:38.634Z,8.43
2018-12-19T04:50:10.942Z,8.15
2018-12-19T04:52:42.992Z,10.70
2018-12-19T04:55:16.222Z,11.38
2018-12-19T04:57:48.099Z,7.87
2018-12-19T05:00:21.105Z,8.33
2018-12-19T05:02:53.311Z,11.78
2018-12-19T05:05:27.970Z,10.60
2018-12-19T05:08:03.141Z,9.55
2018-12-19T05:10:35.483Z,9.10
2018-12-19T05:13:10.336Z,7.80
2018-12-19T05:15:45.324Z,10.48
2018-12-19T05:18:17.619Z,11.30
2018-12-19T05:20:49.711Z,10.20
2018-12-19T05:23:21.617Z,10.80
2018-12-19T05:25:54.162Z,11.20
2018-12-19T05:28:28.095Z,10.88
2018-12-19T05:31:00.723Z,11.80
2018-12-19T05:33:33.527Z,11.45
2018-12-19T05:36:05.444Z,12.30
2018-12-19T05:38:40.431Z,11.63
2018-12-19T05:41:15.400Z,9.30
2018-12-19T05:43:47.506Z,8.70
2018-12-19T05:46:23.002Z,9.70
2018-12-19T05:48:55.672Z,8.83
2018-12-19T05:51:30.459Z,10.10
2018-12-19T05:54:05.768Z,10.20
2018-12-19T05:56:38.210Z,11.28
2018-12-19T05:59:10.104Z,8.37
2018-12-19T06:01:42.305Z,9.30
2018-12-19T06:04:14.945Z,9.18
2018-12-19T06:06:46.977Z,7.90
2018-12-19T06:09:18.878Z,9.40
2018-12-19T06:11:50.985Z,9.37
2018-12-19T06:14:22.888Z,8.15
2018-12-19T06:16:55.019Z,9.48
2018-12-19T06:19:27.028Z,8.80
2018-12-19T06:21:59.143Z,10.00
2018-12-19T06:24:32.429Z,10.28
2018-12-19T06:27:04.684Z,8.50
2018-12-19T06:29:38.898Z,8.85
2018-12-19T06:32:11.522Z,10.35
2018-12-19T06:34:43.659Z,9.53
2018-12-19T06:37:18.419Z,9.43
2018-12-19T06:39:50.967Z,8.80
2018-12-19T06:42:23.211Z,8.20
2018-12-19T06:44:55.269Z,8.90
2018-12-19T06:47:27.362Z,11.60
2018-12-19T06:49:59.362Z,9.87
2018-12-19T06:52:31.279Z,9.48
2018-12-19T06:55:04.124Z,9.53
2018-12-19T06:57:36.882Z,9.23
2018-12-19T07:00:11.679Z,10.20
2018-12-19T07:02:46.707Z,10.93
2018-12-19T07:05:24.661Z,9.88
2018-12-19T07:08:00.491Z,9.60
2018-12-19T07:10:38.973Z,9.17
2018-12-19T07:13:07.114Z,9.30
2018-12-19T07:15:39.196Z,9.68
2018-12-19T07:18:11.247Z,10.48
2018-12-19T07:20:43.446Z,9.90
2018-12-19T07:23:18.297Z,9.85
2018-12-19T07:25:50.621Z,10.70
2018-12-19T07:28:25.598Z,11.50
2018-12-19T07:30:57.690Z,14.70
2018-12-19T07:33:29.923Z,15.60
2018-12-19T07:36:01.909Z,14.25
2018-12-19T07:38:36.554Z,11.57
2018-12-19T07:41:08.708Z,11.23
2018-12-19T07:43:40.626Z,11.33
2018-12-19T07:46:12.986Z,11.30
2018-12-19T07:48:47.855Z,12.70
2018-12-19T07:51:20.701Z,10.83
2018-12-19T07:53:53.108Z,13.10
2018-12-19T07:56:28.180Z,13.10
2018-12-19T07:59:00.522Z,12.43
2018-12-19T08:01:33.471Z,13.53
2018-12-19T08:04:08.951Z,12.70
2018-12-19T08:06:41.769Z,11.60
2018-12-19T08:09:14.407Z,13.30
2018-12-19T08:11:49.208Z,15.17
2018-12-19T08:14:21.530Z,12.60
2018-12-19T08:16:56.207Z,14.40
2018-12-19T08:19:29.571Z,14.10
2018-12-19T08:22:02.778Z,13.60
2018-12-19T08:24:35.000Z,14.53
2018-12-19T08:27:06.968Z,14.13
2018-12-19T08:29:41.972Z,15.00
2018-12-19T08:32:14.184Z,16.07
2018-12-19T08:34:46.373Z,16.40
2018-12-19T08:37:25.193Z,14.97
2018-12-19T08:39:55.866Z,15.80
2018-12-19T08:42:31.452Z,15.50
2018-12-19T08:45:05.392Z,15.03
2018-12-19T08:47:40.038Z,13.87
2018-12-19T08:50:12.414Z,12.80
2018-12-19T08:52:47.950Z,14.90
2018-12-19T08:55:20.526Z,14.03
2018-12-19T08:57:52.431Z,14.03
2018-12-19T09:00:27.932Z,15.13
2018-12-19T09:03:03.049Z,16.40
2018-12-19T09:05:35.544Z,15.90
2018-12-19T09:08:07.690Z,15.43
2018-12-19T09:10:39.563Z,15.53
2018-12-19T09:13:11.831Z,12.83
2018-12-19T09:15:49.819Z,11.07
2018-12-19T09:18:21.990Z,11.70
2018-12-19T09:20:56.868Z,11.37
2018-12-19T09:23:29.092Z,11.73
2018-12-19T09:26:04.032Z,10.80
2018-12-19T09:28:36.425Z,10.63
2018-12-19T09:31:11.781Z,10.33
2018-12-19T09:33:43.879Z,10.70
2018-12-19T09:36:20.585Z,11.03
2018-12-19T09:38:52.844Z,10.90
2018-12-19T09:41:25.545Z,10.73
2018-12-19T09:43:57.558Z,11.27
2018-12-19T09:46:29.572Z,11.70
2018-12-19T09:49:01.403Z,11.70
2018-12-19T09:51:36.252Z,10.83
2018-12-19T09:54:08.512Z,9.60
2018-12-19T09:56:43.297Z,8.70
2018-12-19T09:59:15.648Z,8.90
2018-12-19T10:01:50.796Z,8.37
2018-12-19T10:04:25.419Z,8.77
2018-12-19T10:06:57.778Z,11.40
2018-12-19T10:09:29.682Z,10.50
2018-12-19T10:12:05.480Z,10.30
2018-12-19T10:14:40.531Z,9.20
2018-12-19T10:17:12.836Z,8.03
2018-12-19T10:19:48.660Z,7.83
2018-12-19T10:22:29.167Z,6.13
2018-12-19T10:25:07.247Z,6.90
2018-12-19T10:27:39.733Z,6.47
2018-12-19T10:30:12.047Z,7.33
2018-12-19T10:32:44.411Z,7.00
2018-12-19T10:35:16.212Z,5.10
2018-12-19T10:37:48.096Z,4.30
2018-12-19T10:40:23.020Z,4.60
2018-12-19T10:42:58.199Z,4.00
2018-12-19T10:45:31.396Z,5.17
2018-12-19T10:48:03.405Z,5.73
2018-12-19T10:50:35.384Z,5.30
2018-12-19T10:53:07.169Z,5.70
2018-12-19T10:55:39.790Z,6.07
2018-12-19T10:58:16.552Z,6.10
2018-12-19T11:00:56.625Z,7.07
2018-12-19T11:03:35.333Z,6.80
2018-12-19T11:06:07.990Z,6.77
2018-12-19T11:08:42.927Z,6.63
2018-12-19T11:11:20.056Z,6.80
2018-12-19T11:14:07.016Z,6.20
2018-12-19T11:16:42.358Z,6.07
2018-12-19T11:19:14.689Z,6.37
2018-12-19T11:21:46.709Z,5.80
2018-12-19T11:24:18.802Z,5.90
2018-12-19T11:26:51.285Z,6.03
2018-12-19T11:29:25.959Z,5.97
2018-12-19T11:31:59.449Z,4.90
2018-12-19T11:34:35.136Z,5.10
2018-12-19T11:37:09.956Z,4.60
2018-12-19T11:39:44.892Z,5.13
2018-12-19T11:42:17.111Z,5.20
2018-12-19T11:44:51.991Z,4.50
2018-12-19T11:47:26.934Z,4.20
2018-12-19T11:49:58.833Z,4.30
2018-12-19T11:52:30.926Z,3.73
2018-12-19T11:55:03.002Z,3.97
2018-12-19T11:57:35.196Z,3.60
2018-12-19T12:00:10.287Z,3.83
2018-12-19T12:02:51.479Z,4.60
2018-12-19T12:05:24.815Z,4.47
2018-12-19T12:07:57.226Z,3.80
2018-12-19T12:10:29.115Z,3.80
2018-12-19T12:13:06.747Z,4.40
2018-12-19T12:15:39.376Z,4.40
2018-12-19T12:18:14.077Z,4.10
2018-12-19T12:20:46.472Z,4.70
2018-12-19T12:23:19.181Z,3.97
2018-12-19T12:25:51.605Z,4.27
2018-12-19T12:28:23.666Z,4.40
2018-12-19T12:30:55.555Z,4.90
2018-12-19T12:33:30.678Z,4.33
2018-12-19T12:36:06.880Z,4.60
2018-12-19T12:38:39.287Z,4.53
2018-12-19T12:41:11.408Z,5.60
2018-12-19T12:43:43.724Z,5.93
2018-12-19T12:46:16.009Z,6.47
2018-12-19T12:48:49.225Z,6.10
2018-12-19T12:51:22.366Z,6.30
2018-12-19T12:53:57.621Z,6.47
2018-12-19T12:56:29.830Z,5.90
2018-12-19T12:59:01.715Z,5.87
2018-12-19T13:01:37.026Z,4.73
2018-12-19T13:04:10.061Z,5.80
2018-12-19T13:06:42.767Z,5.50
2018-12-19T13:09:16.950Z,5.80
2018-12-19T13:11:49.134Z,5.70
2018-12-19T13:14:21.219Z,5.40
2018-12-19T13:16:55.776Z,5.60
2018-12-19T13:19:30.802Z,5.93
2018-12-19T13:22:03.471Z,6.50
2018-12-19T13:24:38.381Z,6.03
2018-12-19T13:27:10.626Z,6.20
2018-12-19T13:29:42.855Z,5.87
2018-12-19T13:32:15.196Z,5.73
2018-12-19T13:34:47.165Z,6.27
2018-12-19T13:37:19.472Z,5.83
2018-12-19T13:39:51.380Z,7.37
2018-12-19T13:42:23.319Z,6.00
2018-12-19T13:44:55.696Z,6.30
2018-12-19T13:47:31.032Z,6.50
2018-12-19T13:50:04.986Z,5.77
2018-12-19T13:52:40.079Z,5.57
2018-12-19T13:55:15.062Z,6.50
2018-12-19T13:57:47.438Z,6.40
2018-12-19T14:00:19.652Z,6.47
2018-12-19T14:10:39.413Z,5.83
2018-12-19T14:13:11.415Z,5.87
2018-12-19T14:15:46.066Z,6.10
2018-12-19T14:18:18.286Z,6.47
2018-12-19T14:20:50.424Z,6.30
2018-12-19T14:23:27.205Z,6.60
2018-12-19T14:26:01.883Z,6.07
2018-12-19T14:28:35.003Z,6.80
2018-12-19T14:31:07.174Z,8.17
2018-12-19T14:33:42.984Z,10.97
2018-12-19T14:36:18.383Z,7.03
2018-12-19T14:38:54.496Z,7.87
2018-12-19T14:41:30.521Z,6.40
2018-12-19T14:44:05.484Z,6.77
2018-12-19T14:46:38.806Z,6.63
2018-12-19T14:49:13.997Z,7.70
2018-12-19T14:51:49.378Z,7.17
2018-12-19T14:54:21.809Z,7.57
2018-12-19T14:56:56.447Z,7.20
2018-12-19T14:59:30.189Z,7.87
2018-12-19T15:02:04.064Z,7.30
2018-12-19T15:04:38.909Z,10.13
2018-12-19T15:07:14.911Z,8.97
2018-12-19T15:09:46.862Z,8.30
2018-12-19T15:12:25.663Z,9.20
2018-12-19T15:14:55.847Z,10.53
2018-12-19T15:17:27.925Z,12.13
2018-12-19T15:19:59.914Z,12.63
2018-12-19T15:22:34.787Z,10.10
2018-12-19T15:25:08.242Z,10.83
2018-12-19T15:27:44.113Z,13.03
2018-12-19T15:30:16.274Z,13.43
2018-12-19T15:32:48.683Z,12.43
2018-12-19T15:35:23.312Z,11.97
2018-12-19T15:37:55.637Z,11.47
2018-12-19T15:40:26.047Z,11.53
2018-12-19T15:43:02.146Z,11.83
2018-12-19T15:45:34.451Z,11.17
2018-12-19T15:48:10.098Z,12.10
2018-12-19T15:50:42.417Z,11.17
2018-12-19T15:53:16.426Z,10.33
2018-12-19T15:55:49.768Z,9.93
2018-12-19T15:58:25.277Z,10.53
2018-12-19T16:01:00.457Z,10.20
2018-12-19T16:03:35.498Z,10.20
2018-12-19T16:06:10.558Z,10.43
2018-12-19T16:08:47.654Z,11.00
2018-12-19T16:11:20.058Z,11.67
2018-12-19T16:13:55.172Z,11.37
2018-12-19T16:16:27.050Z,11.33
2018-12-19T16:19:17.086Z,11.13
2018-12-19T16:21:49.889Z,11.83
2018-12-19T16:24:23.214Z,11.60
2018-12-19T16:26:58.466Z,10.87
2018-12-19T16:29:33.661Z,12.87
2018-12-19T16:32:08.511Z,12.47
2018-12-19T16:34:43.800Z,11.53
2018-12-19T16:37:16.066Z,11.63
2018-12-19T16:39:47.886Z,12.03
2018-12-19T16:42:22.719Z,12.03
2018-12-19T16:44:54.905Z,13.17
2018-12-19T16:47:27.070Z,12.17
2018-12-19T16:49:59.944Z,13.03
2018-12-19T16:52:34.500Z,13.17
2018-12-19T16:55:06.906Z,12.23
2018-12-19T16:57:42.880Z,11.80
2018-12-19T17:00:18.922Z,10.77
2018-12-19T17:02:53.542Z,11.60
2018-12-19T17:05:28.707Z,12.90
2018-12-19T17:08:02.700Z,10.83
2018-12-19T17:10:35.132Z,10.47
2018-12-19T17:13:07.104Z,10.33
2018-12-19T17:15:42.182Z,10.73
2018-12-19T17:18:14.188Z,12.47
2018-12-19T17:20:52.796Z,12.07
2018-12-19T17:23:25.345Z,13.90
2018-12-19T17:25:58.052Z,14.20
2018-12-19T17:28:33.106Z,13.60
2018-12-19T17:31:08.290Z,14.17
2018-12-19T17:33:45.533Z,13.80
2018-12-19T17:36:20.613Z,12.77
2018-12-19T17:38:52.812Z,11.30
2018-12-19T17:41:29.683Z,10.50
2018-12-19T17:44:03.218Z,11.23
2018-12-19T17:46:39.019Z,11.10
2018-12-19T17:49:13.714Z,11.07
2018-12-19T17:51:45.857Z,11.70
2018-12-19T17:54:17.983Z,11.03
2018-12-19T17:56:52.945Z,11.20
2018-12-19T17:59:24.993Z,11.40
2018-12-19T18:01:57.891Z,12.43
2018-12-19T18:04:32.871Z,11.63
2018-12-19T18:07:05.287Z,12.77
2018-12-19T18:09:37.502Z,12.47
2018-12-19T18:12:09.598Z,13.97
2018-12-19T18:14:46.391Z,12.63
2018-12-19T18:17:23.768Z,14.67
2018-12-19T18:20:01.111Z,14.80
2018-12-19T18:22:37.414Z,11.73
2018-12-19T18:25:12.192Z,11.43
2018-12-19T18:27:49.833Z,12.10
2018-12-19T18:30:22.656Z,10.27
2018-12-19T18:32:57.391Z,9.03
2018-12-19T18:35:30.895Z,8.07
2018-12-19T18:38:03.096Z,7.90
2018-12-19T18:40:44.975Z,6.70
2018-12-19T18:43:24.491Z,7.63
2018-12-19T18:45:57.216Z,7.13
2018-12-19T18:48:31.912Z,6.10
2018-12-19T18:51:07.119Z,6.23
2018-12-19T18:53:46.943Z,6.03
2018-12-19T18:56:23.185Z,6.00
2018-12-19T18:59:01.519Z,7.73
2018-12-19T19:01:35.679Z,6.47
2018-12-19T19:04:07.766Z,6.43
2018-12-19T19:06:42.632Z,6.43
2018-12-19T19:09:15.302Z,5.47
2018-12-19T19:11:47.170Z,5.40
2018-12-19T19:14:21.962Z,6.47
2018-12-19T19:16:55.371Z,5.87
2018-12-19T19:19:32.533Z,8.27
2018-12-19T19:22:05.318Z,8.67
2018-12-19T19:24:47.643Z,8.80
2018-12-19T19:27:21.604Z,9.57
2018-12-19T19:29:54.221Z,8.97
2018-12-19T19:32:29.703Z,8.40
2018-12-19T19:35:05.466Z,7.93
2018-12-19T19:37:41.946Z,8.07
2018-12-19T19:40:14.277Z,7.97
2018-12-19T19:42:52.839Z,7.80
2018-12-19T19:45:27.898Z,7.50
2018-12-19T19:48:03.423Z,7.40
2018-12-19T19:50:39.715Z,7.97
2018-12-19T19:53:11.752Z,8.63
2018-12-19T19:55:43.998Z,8.07
2018-12-19T19:58:16.124Z,8.20
2018-12-19T20:00:48.082Z,6.77
2018-12-19T20:03:21.122Z,7.20
2018-12-19T20:05:53.132Z,6.53
2018-12-19T20:08:25.298Z,5.13
2018-12-19T20:11:00.002Z,6.73
2018-12-19T20:13:33.407Z,7.77
2018-12-19T20:16:06.524Z,7.93
2018-12-19T20:18:39.156Z,8.10
2018-12-19T20:21:17.729Z,5.10
2018-12-19T20:23:52.507Z,5.70
2018-12-19T20:26:25.744Z,5.70
2018-12-19T20:29:01.074Z,7.67
2018-12-19T20:31:33.472Z,6.67
2018-12-19T20:34:05.776Z,6.60
2018-12-19T20:36:38.223Z,4.07
2018-12-19T20:39:10.464Z,4.67
2018-12-19T20:41:45.280Z,4.00
2018-12-19T20:44:17.990Z,6.20
2018-12-19T20:46:53.497Z,5.03
2018-12-19T20:49:28.477Z,4.40
2018-12-19T20:52:03.649Z,3.37
2018-12-19T20:54:35.675Z,4.80
2018-12-19T20:57:10.531Z,3.20
2018-12-19T20:59:42.835Z,3.53
2018-12-19T21:02:15.128Z,3.63
2018-12-19T21:04:47.112Z,3.33
2018-12-19T21:07:23.354Z,3.40
2018-12-19T21:09:58.818Z,3.63
2018-12-19T21:12:31.103Z,3.83
2018-12-19T21:15:08.395Z,4.07
2018-12-19T21:17:46.088Z,3.73
2018-12-19T21:20:19.044Z,4.10
2018-12-19T21:22:54.761Z,3.80
2018-12-19T21:25:27.658Z,3.47
2018-12-19T21:28:01.230Z,3.27
2018-12-19T21:30:33.690Z,3.83
2018-12-19T21:33:05.863Z,3.60
2018-12-19T21:35:38.987Z,3.37
2018-12-19T21:38:12.011Z,3.73
2018-12-19T21:40:53.823Z,3.20
2018-12-19T21:43:26.116Z,4.30
2018-12-19T21:45:58.271Z,4.03
2018-12-19T21:48:30.553Z,3.70
2018-12-19T21:51:05.297Z,3.60
2018-12-19T21:53:37.627Z,3.57
2018-12-19T21:56:10.425Z,3.47
2018-12-19T21:58:42.695Z,4.00
2018-12-19T22:01:17.444Z,3.73
2018-12-19T22:03:49.730Z,4.87
2018-12-19T22:06:21.867Z,4.60
2018-12-19T22:08:53.730Z,4.57
2018-12-19T22:11:29.428Z,3.70
2018-12-19T22:14:04.503Z,4.00
2018-12-19T22:16:43.336Z,3.60
2018-12-19T22:19:15.845Z,4.83
2018-12-19T22:21:50.538Z,4.53
2018-12-19T22:24:25.981Z,4.17
2018-12-19T22:27:00.890Z,4.40
2018-12-19T22:29:36.150Z,4.90
2018-12-19T22:32:08.357Z,4.97
2018-12-19T22:34:41.128Z,4.47
2018-12-19T22:37:14.091Z,4.20
2018-12-19T22:39:46.684Z,3.80
2018-12-19T22:42:21.480Z,4.47
2018-12-19T22:44:56.680Z,4.73
2018-12-19T22:47:35.342Z,4.60
2018-12-19T22:50:07.761Z,5.07
2018-12-19T22:52:39.779Z,5.10
2018-12-19T22:55:14.902Z,4.83
2018-12-19T22:57:46.714Z,5.40
2018-12-19T23:00:21.623Z,4.97
2018-12-19T23:02:59.548Z,5.07
2018-12-19T23:05:37.713Z,5.23
2018-12-19T23:08:13.167Z,5.10
2018-12-19T23:10:49.309Z,4.80
2018-12-19T23:13:21.752Z,4.23
2018-12-19T23:15:53.663Z,5.23
2018-12-19T23:18:28.372Z,4.43
2018-12-19T23:21:00.588Z,4.67
2018-12-19T23:23:32.628Z,4.70
2018-12-19T23:26:05.409Z,5.30
2018-12-19T23:28:40.559Z,4.93
2018-12-19T23:31:13.117Z,4.53
2018-12-19T23:33:45.332Z,4.57
2018-12-19T23:36:20.418Z,5.60
2018-12-19T23:38:53.180Z,5.47
2018-12-19T23:41:25.005Z,5.07
2018-12-19T23:44:00.153Z,4.90
2018-12-19T23:46:34.390Z,4.30
2018-12-19T23:49:09.114Z,5.57
2018-12-19T23:51:42.625Z,5.57
2018-12-19T23:54:14.635Z,4.40
2018-12-19T23:56:47.207Z,5.43
2018-12-19T23:59:19.945Z,4.70
